sensor_id;sensor_type;location;lat;lon;timestamp;temperature;humidity
78345;DHT22;67620;51.134;6.548;2023-02-18T00:00:58;10.30;87.80
78345;DHT22;67620;51.134;6.548;2023-02-18T00:03:25;10.20;88.00
78345;DHT22;67620;51.134;6.548;2023-02-18T00:05:51;10.30;88.00
78345;DHT22;67620;51.134;6.548;2023-02-18T00:08:19;10.30;87.90
78345;DHT22;67620;51.134;6.548;2023-02-18T00:10:45;10.30;87.90
78345;DHT22;67620;51.134;6.548;2023-02-18T00:13:10;10.30;87.90
78345;DHT22;67620;51.134;6.548;2023-02-18T00:15:37;10.30;88.20
78345;DHT22;67620;51.134;6.548;2023-02-18T00:18:03;10.20;88.20
78345;DHT22;67620;51.134;6.548;2023-02-18T00:20:29;10.20;88.30
78345;DHT22;67620;51.134;6.548;2023-02-18T00:22:54;10.20;88.20
78345;DHT22;67620;51.134;6.548;2023-02-18T00:25:20;10.20;88.20
78345;DHT22;67620;51.134;6.548;2023-02-18T00:27:45;10.20;88.20
78345;DHT22;67620;51.134;6.548;2023-02-18T00:30:11;10.20;88.30
78345;DHT22;67620;51.134;6.548;2023-02-18T00:32:37;10.20;88.40
78345;DHT22;67620;51.134;6.548;2023-02-18T00:35:03;10.20;88.20
78345;DHT22;67620;51.134;6.548;2023-02-18T00:37:29;10.20;88.20
78345;DHT22;67620;51.134;6.548;2023-02-18T00:39:54;10.20;88.20
78345;DHT22;67620;51.134;6.548;2023-02-18T00:42:20;10.20;88.40
78345;DHT22;67620;51.134;6.548;2023-02-18T00:44:45;10.20;88.20
78345;DHT22;67620;51.134;6.548;2023-02-18T00:47:11;10.20;88.10
78345;DHT22;67620;51.134;6.548;2023-02-18T00:49:36;10.30;87.90
78345;DHT22;67620;51.134;6.548;2023-02-18T00:52:02;10.30;87.90
78345;DHT22;67620;51.134;6.548;2023-02-18T00:54:28;10.30;87.80
78345;DHT22;67620;51.134;6.548;2023-02-18T00:56:54;10.30;87.90
78345;DHT22;67620;51.134;6.548;2023-02-18T00:59:19;10.20;88.10
78345;DHT22;67620;51.134;6.548;2023-02-18T01:01:45;10.20;88.10
78345;DHT22;67620;51.134;6.548;2023-02-18T01:04:11;10.20;88.20
78345;DHT22;67620;51.134;6.548;2023-02-18T01:06:37;10.20;88.30
78345;DHT22;67620;51.134;6.548;2023-02-18T01:09:03;10.20;88.10
78345;DHT22;67620;51.134;6.548;2023-02-18T01:11:29;10.20;88.20
78345;DHT22;67620;51.134;6.548;2023-02-18T01:13:55;10.20;88.40
78345;DHT22;67620;51.134;6.548;2023-02-18T01:16:21;10.20;88.40
78345;DHT22;67620;51.134;6.548;2023-02-18T01:18:46;10.20;88.40
78345;DHT22;67620;51.134;6.548;2023-02-18T01:21:12;10.20;88.60
78345;DHT22;67620;51.134;6.548;2023-02-18T01:23:38;10.20;88.70
78345;DHT22;67620;51.134;6.548;2023-02-18T01:26:05;10.20;88.60
78345;DHT22;67620;51.134;6.548;2023-02-18T01:28:30;10.20;88.50
78345;DHT22;67620;51.134;6.548;2023-02-18T01:30:56;10.20;88.80
78345;DHT22;67620;51.134;6.548;2023-02-18T01:33:22;10.10;88.70
78345;DHT22;67620;51.134;6.548;2023-02-18T01:35:47;10.10;88.90
78345;DHT22;67620;51.134;6.548;2023-02-18T01:38:13;10.10;89.10
78345;DHT22;67620;51.134;6.548;2023-02-18T01:40:46;10.10;89.10
78345;DHT22;67620;51.134;6.548;2023-02-18T01:43:14;10.10;89.40
78345;DHT22;67620;51.134;6.548;2023-02-18T01:45:59;10.00;89.70
78345;DHT22;67620;51.134;6.548;2023-02-18T01:51:19;10.00;90.70
78345;DHT22;67620;51.134;6.548;2023-02-18T01:56:59;9.90;91.80
78345;DHT22;67620;51.134;6.548;2023-02-18T01:59:41;9.90;92.30
78345;DHT22;67620;51.134;6.548;2023-02-18T02:02:12;9.80;92.70
78345;DHT22;67620;51.134;6.548;2023-02-18T02:04:38;9.80;93.00
78345;DHT22;67620;51.134;6.548;2023-02-18T02:07:04;9.80;93.10
78345;DHT22;67620;51.134;6.548;2023-02-18T02:09:30;9.80;93.10
78345;DHT22;67620;51.134;6.548;2023-02-18T02:15:03;9.80;93.50
78345;DHT22;67620;51.134;6.548;2023-02-18T02:48:37;9.90;92.90
78345;DHT22;67620;51.134;6.548;2023-02-18T02:51:10;9.90;92.80
78345;DHT22;67620;51.134;6.548;2023-02-18T02:53:40;9.90;92.80
78345;DHT22;67620;51.134;6.548;2023-02-18T02:56:08;10.00;92.40
78345;DHT22;67620;51.134;6.548;2023-02-18T02:58:34;9.90;92.40
78345;DHT22;67620;51.134;6.548;2023-02-18T03:01:10;10.00;92.20
78345;DHT22;67620;51.134;6.548;2023-02-18T03:09:16;10.00;92.10
78345;DHT22;67620;51.134;6.548;2023-02-18T03:11:56;9.90;92.20
78345;DHT22;67620;51.134;6.548;2023-02-18T03:17:32;10.00;91.90
78345;DHT22;67620;51.134;6.548;2023-02-18T03:20:15;10.00;91.90
78345;DHT22;67620;51.134;6.548;2023-02-18T03:22:46;10.00;91.50
78345;DHT22;67620;51.134;6.548;2023-02-18T03:25:13;10.00;91.40
78345;DHT22;67620;51.134;6.548;2023-02-18T03:27:45;10.00;91.60
78345;DHT22;67620;51.134;6.548;2023-02-18T03:30:17;10.00;91.40
78345;DHT22;67620;51.134;6.548;2023-02-18T03:32:46;10.00;91.50
78345;DHT22;67620;51.134;6.548;2023-02-18T03:35:16;10.00;91.70
78345;DHT22;67620;51.134;6.548;2023-02-18T03:37:47;10.00;91.90
78345;DHT22;67620;51.134;6.548;2023-02-18T03:40:13;9.90;92.00
78345;DHT22;67620;51.134;6.548;2023-02-18T03:42:40;9.90;91.80
78345;DHT22;67620;51.134;6.548;2023-02-18T03:45:05;9.90;91.90
78345;DHT22;67620;51.134;6.548;2023-02-18T03:47:31;9.90;91.90
78345;DHT22;67620;51.134;6.548;2023-02-18T03:49:57;10.00;91.70
78345;DHT22;67620;51.134;6.548;2023-02-18T03:52:23;10.00;91.60
78345;DHT22;67620;51.134;6.548;2023-02-18T03:54:48;10.00;91.70
78345;DHT22;67620;51.134;6.548;2023-02-18T03:57:15;10.00;91.30
78345;DHT22;67620;51.134;6.548;2023-02-18T03:59:40;10.00;91.30
78345;DHT22;67620;51.134;6.548;2023-02-18T04:02:06;10.00;91.30
78345;DHT22;67620;51.134;6.548;2023-02-18T04:04:31;10.00;91.30
78345;DHT22;67620;51.134;6.548;2023-02-18T04:06:57;9.90;91.60
78345;DHT22;67620;51.134;6.548;2023-02-18T04:09:22;9.90;91.70
78345;DHT22;67620;51.134;6.548;2023-02-18T04:11:48;9.90;92.20
78345;DHT22;67620;51.134;6.548;2023-02-18T04:14:14;9.80;92.80
78345;DHT22;67620;51.134;6.548;2023-02-18T04:16:40;9.80;93.40
78345;DHT22;67620;51.134;6.548;2023-02-18T04:19:06;9.70;93.80
78345;DHT22;67620;51.134;6.548;2023-02-18T04:21:32;9.70;94.10
78345;DHT22;67620;51.134;6.548;2023-02-18T04:23:58;9.70;94.30
78345;DHT22;67620;51.134;6.548;2023-02-18T04:26:24;9.70;94.40
78345;DHT22;67620;51.134;6.548;2023-02-18T04:28:49;9.70;94.50
78345;DHT22;67620;51.134;6.548;2023-02-18T04:31:15;9.60;94.60
78345;DHT22;67620;51.134;6.548;2023-02-18T04:33:40;9.60;94.50
78345;DHT22;67620;51.134;6.548;2023-02-18T04:36:06;9.60;94.60
78345;DHT22;67620;51.134;6.548;2023-02-18T04:38:32;9.60;94.80
78345;DHT22;67620;51.134;6.548;2023-02-18T04:40:57;9.60;94.70
78345;DHT22;67620;51.134;6.548;2023-02-18T04:43:23;9.60;94.90
78345;DHT22;67620;51.134;6.548;2023-02-18T04:45:49;9.60;94.90
78345;DHT22;67620;51.134;6.548;2023-02-18T04:48:14;9.60;94.90
78345;DHT22;67620;51.134;6.548;2023-02-18T04:50:40;9.60;94.90
78345;DHT22;67620;51.134;6.548;2023-02-18T04:53:06;9.60;94.90
78345;DHT22;67620;51.134;6.548;2023-02-18T04:55:31;9.60;94.90
78345;DHT22;67620;51.134;6.548;2023-02-18T04:57:57;9.60;94.90
78345;DHT22;67620;51.134;6.548;2023-02-18T05:00:22;9.60;94.70
78345;DHT22;67620;51.134;6.548;2023-02-18T05:02:48;9.60;94.50
78345;DHT22;67620;51.134;6.548;2023-02-18T05:05:14;9.60;94.50
78345;DHT22;67620;51.134;6.548;2023-02-18T05:07:39;9.60;94.40
78345;DHT22;67620;51.134;6.548;2023-02-18T05:10:08;9.60;94.60
78345;DHT22;67620;51.134;6.548;2023-02-18T05:12:34;9.50;94.60
78345;DHT22;67620;51.134;6.548;2023-02-18T05:14:59;9.50;94.80
78345;DHT22;67620;51.134;6.548;2023-02-18T05:17:25;9.50;94.70
78345;DHT22;67620;51.134;6.548;2023-02-18T05:19:50;9.50;94.80
78345;DHT22;67620;51.134;6.548;2023-02-18T05:22:16;9.50;94.70
78345;DHT22;67620;51.134;6.548;2023-02-18T05:24:41;9.60;94.60
78345;DHT22;67620;51.134;6.548;2023-02-18T05:27:07;9.50;94.70
78345;DHT22;67620;51.134;6.548;2023-02-18T05:29:32;9.50;94.60
78345;DHT22;67620;51.134;6.548;2023-02-18T05:31:58;9.50;94.70
78345;DHT22;67620;51.134;6.548;2023-02-18T05:34:23;9.50;94.40
78345;DHT22;67620;51.134;6.548;2023-02-18T05:36:49;9.50;94.40
78345;DHT22;67620;51.134;6.548;2023-02-18T05:39:14;9.50;94.30
78345;DHT22;67620;51.134;6.548;2023-02-18T05:41:40;9.50;94.40
78345;DHT22;67620;51.134;6.548;2023-02-18T05:44:05;9.50;94.40
78345;DHT22;67620;51.134;6.548;2023-02-18T05:46:50;9.50;94.30
78345;DHT22;67620;51.134;6.548;2023-02-18T05:49:15;9.50;94.00
78345;DHT22;67620;51.134;6.548;2023-02-18T05:51:41;9.50;94.20
78345;DHT22;67620;51.134;6.548;2023-02-18T05:54:06;9.50;94.10
78345;DHT22;67620;51.134;6.548;2023-02-18T05:56:32;9.50;94.10
78345;DHT22;67620;51.134;6.548;2023-02-18T05:58:57;9.50;93.90
78345;DHT22;67620;51.134;6.548;2023-02-18T06:01:23;9.50;93.90
78345;DHT22;67620;51.134;6.548;2023-02-18T06:03:48;9.50;93.40
78345;DHT22;67620;51.134;6.548;2023-02-18T06:06:14;9.60;92.90
78345;DHT22;67620;51.134;6.548;2023-02-18T06:08:40;9.60;92.60
78345;DHT22;67620;51.134;6.548;2023-02-18T06:11:05;9.60;92.30
78345;DHT22;67620;51.134;6.548;2023-02-18T06:13:31;9.60;91.80
78345;DHT22;67620;51.134;6.548;2023-02-18T06:15:56;9.70;91.00
78345;DHT22;67620;51.134;6.548;2023-02-18T06:18:22;9.70;91.00
78345;DHT22;67620;51.134;6.548;2023-02-18T06:20:48;9.70;91.30
78345;DHT22;67620;51.134;6.548;2023-02-18T06:23:14;9.70;90.60
78345;DHT22;67620;51.134;6.548;2023-02-18T06:25:40;9.70;90.40
78345;DHT22;67620;51.134;6.548;2023-02-18T06:28:06;9.70;90.40
78345;DHT22;67620;51.134;6.548;2023-02-18T06:30:31;9.70;90.30
78345;DHT22;67620;51.134;6.548;2023-02-18T06:32:57;9.70;89.80
78345;DHT22;67620;51.134;6.548;2023-02-18T06:35:22;9.70;89.70
78345;DHT22;67620;51.134;6.548;2023-02-18T06:37:48;9.80;89.00
78345;DHT22;67620;51.134;6.548;2023-02-18T06:40:13;9.70;89.00
78345;DHT22;67620;51.134;6.548;2023-02-18T06:42:39;9.80;89.00
78345;DHT22;67620;51.134;6.548;2023-02-18T06:45:04;9.70;89.70
78345;DHT22;67620;51.134;6.548;2023-02-18T06:47:31;9.70;88.60
78345;DHT22;67620;51.134;6.548;2023-02-18T06:49:57;9.70;89.30
78345;DHT22;67620;51.134;6.548;2023-02-18T06:52:22;9.70;89.20
78345;DHT22;67620;51.134;6.548;2023-02-18T06:54:48;9.70;88.70
78345;DHT22;67620;51.134;6.548;2023-02-18T06:57:13;9.80;87.60
78345;DHT22;67620;51.134;6.548;2023-02-18T06:59:39;9.80;87.10
78345;DHT22;67620;51.134;6.548;2023-02-18T07:02:04;9.80;87.20
78345;DHT22;67620;51.134;6.548;2023-02-18T07:04:30;9.70;87.90
78345;DHT22;67620;51.134;6.548;2023-02-18T07:06:56;9.70;87.80
78345;DHT22;67620;51.134;6.548;2023-02-18T07:09:21;9.70;87.60
78345;DHT22;67620;51.134;6.548;2023-02-18T07:11:47;9.70;87.90
78345;DHT22;67620;51.134;6.548;2023-02-18T07:14:12;9.70;87.70
78345;DHT22;67620;51.134;6.548;2023-02-18T07:16:38;9.70;87.90
78345;DHT22;67620;51.134;6.548;2023-02-18T07:19:03;9.70;88.10
78345;DHT22;67620;51.134;6.548;2023-02-18T07:21:29;9.70;88.20
78345;DHT22;67620;51.134;6.548;2023-02-18T07:23:54;9.60;88.30
78345;DHT22;67620;51.134;6.548;2023-02-18T07:26:20;9.60;88.70
78345;DHT22;67620;51.134;6.548;2023-02-18T07:28:45;9.60;88.40
78345;DHT22;67620;51.134;6.548;2023-02-18T07:31:11;9.60;88.80
78345;DHT22;67620;51.134;6.548;2023-02-18T07:33:36;9.60;89.10
78345;DHT22;67620;51.134;6.548;2023-02-18T07:36:02;9.60;88.60
78345;DHT22;67620;51.134;6.548;2023-02-18T07:38:28;9.60;87.90
78345;DHT22;67620;51.134;6.548;2023-02-18T07:40:55;9.70;87.40
78345;DHT22;67620;51.134;6.548;2023-02-18T07:43:21;9.70;86.60
78345;DHT22;67620;51.134;6.548;2023-02-18T07:45:46;9.70;85.90
78345;DHT22;67620;51.134;6.548;2023-02-18T07:48:12;9.60;86.50
78345;DHT22;67620;51.134;6.548;2023-02-18T07:50:39;9.60;85.80
78345;DHT22;67620;51.134;6.548;2023-02-18T07:53:05;9.60;86.00
78345;DHT22;67620;51.134;6.548;2023-02-18T07:55:31;9.60;86.20
78345;DHT22;67620;51.134;6.548;2023-02-18T07:58:23;9.60;86.00
78345;DHT22;67620;51.134;6.548;2023-02-18T08:00:50;9.50;85.60
78345;DHT22;67620;51.134;6.548;2023-02-18T08:03:16;9.40;86.30
78345;DHT22;67620;51.134;6.548;2023-02-18T08:05:42;9.40;86.90
78345;DHT22;67620;51.134;6.548;2023-02-18T08:08:12;9.40;86.80
78345;DHT22;67620;51.134;6.548;2023-02-18T08:10:38;9.30;86.60
78345;DHT22;67620;51.134;6.548;2023-02-18T08:13:03;9.30;86.90
78345;DHT22;67620;51.134;6.548;2023-02-18T08:15:29;9.30;86.50
78345;DHT22;67620;51.134;6.548;2023-02-18T08:17:54;9.30;86.40
78345;DHT22;67620;51.134;6.548;2023-02-18T08:20:20;9.30;85.80
78345;DHT22;67620;51.134;6.548;2023-02-18T08:22:45;9.20;86.60
78345;DHT22;67620;51.134;6.548;2023-02-18T08:25:11;9.30;86.20
78345;DHT22;67620;51.134;6.548;2023-02-18T08:27:37;9.20;86.00
78345;DHT22;67620;51.134;6.548;2023-02-18T08:30:02;9.20;86.30
78345;DHT22;67620;51.134;6.548;2023-02-18T08:32:28;9.20;86.10
78345;DHT22;67620;51.134;6.548;2023-02-18T08:34:54;9.10;86.60
78345;DHT22;67620;51.134;6.548;2023-02-18T08:37:20;9.10;86.60
78345;DHT22;67620;51.134;6.548;2023-02-18T08:39:45;9.20;86.40
78345;DHT22;67620;51.134;6.548;2023-02-18T08:42:11;9.20;86.50
78345;DHT22;67620;51.134;6.548;2023-02-18T08:44:36;9.30;86.40
78345;DHT22;67620;51.134;6.548;2023-02-18T08:47:02;9.40;85.00
78345;DHT22;67620;51.134;6.548;2023-02-18T08:49:27;9.40;84.70
78345;DHT22;67620;51.134;6.548;2023-02-18T08:51:53;9.40;84.40
78345;DHT22;67620;51.134;6.548;2023-02-18T08:54:19;9.30;84.10
78345;DHT22;67620;51.134;6.548;2023-02-18T08:56:44;9.40;83.60
78345;DHT22;67620;51.134;6.548;2023-02-18T08:59:10;9.30;84.80
78345;DHT22;67620;51.134;6.548;2023-02-18T09:01:35;9.40;84.80
78345;DHT22;67620;51.134;6.548;2023-02-18T09:04:01;9.30;85.00
78345;DHT22;67620;51.134;6.548;2023-02-18T09:06:27;9.30;84.90
78345;DHT22;67620;51.134;6.548;2023-02-18T09:08:52;9.30;85.10
78345;DHT22;67620;51.134;6.548;2023-02-18T09:11:18;9.40;85.20
78345;DHT22;67620;51.134;6.548;2023-02-18T09:13:45;9.40;84.00
78345;DHT22;67620;51.134;6.548;2023-02-18T09:16:12;9.40;85.00
78345;DHT22;67620;51.134;6.548;2023-02-18T09:18:37;9.50;84.50
78345;DHT22;67620;51.134;6.548;2023-02-18T09:21:05;9.50;84.10
78345;DHT22;67620;51.134;6.548;2023-02-18T09:23:32;9.60;84.00
78345;DHT22;67620;51.134;6.548;2023-02-18T09:25:58;9.60;83.20
78345;DHT22;67620;51.134;6.548;2023-02-18T09:28:24;9.50;83.10
78345;DHT22;67620;51.134;6.548;2023-02-18T09:30:50;9.50;83.50
78345;DHT22;67620;51.134;6.548;2023-02-18T09:33:17;9.50;83.40
78345;DHT22;67620;51.134;6.548;2023-02-18T09:35:43;9.60;82.60
78345;DHT22;67620;51.134;6.548;2023-02-18T09:38:10;9.60;82.70
78345;DHT22;67620;51.134;6.548;2023-02-18T09:40:39;9.70;82.90
78345;DHT22;67620;51.134;6.548;2023-02-18T09:43:08;9.80;82.60
78345;DHT22;67620;51.134;6.548;2023-02-18T09:45:38;9.70;82.30
78345;DHT22;67620;51.134;6.548;2023-02-18T09:48:04;9.70;82.30
78345;DHT22;67620;51.134;6.548;2023-02-18T09:50:32;9.70;82.10
78345;DHT22;67620;51.134;6.548;2023-02-18T09:52:59;9.70;82.30
78345;DHT22;67620;51.134;6.548;2023-02-18T09:55:34;9.70;82.20
78345;DHT22;67620;51.134;6.548;2023-02-18T09:58:06;9.70;82.90
78345;DHT22;67620;51.134;6.548;2023-02-18T10:00:45;9.70;81.70
78345;DHT22;67620;51.134;6.548;2023-02-18T10:03:16;9.70;82.00
78345;DHT22;67620;51.134;6.548;2023-02-18T10:08:29;9.80;81.30
78345;DHT22;67620;51.134;6.548;2023-02-18T10:10:56;9.80;81.40
78345;DHT22;67620;51.134;6.548;2023-02-18T10:13:25;9.80;81.70
78345;DHT22;67620;51.134;6.548;2023-02-18T10:15:51;9.80;81.80
78345;DHT22;67620;51.134;6.548;2023-02-18T10:18:31;9.80;81.90
78345;DHT22;67620;51.134;6.548;2023-02-18T10:21:25;9.70;82.70
78345;DHT22;67620;51.134;6.548;2023-02-18T10:24:09;9.70;82.80
78345;DHT22;67620;51.134;6.548;2023-02-18T10:26:39;9.70;82.60
78345;DHT22;67620;51.134;6.548;2023-02-18T10:29:13;9.70;83.00
78345;DHT22;67620;51.134;6.548;2023-02-18T10:32:04;9.70;82.80
78345;DHT22;67620;51.134;6.548;2023-02-18T10:37:22;9.70;83.40
78345;DHT22;67620;51.134;6.548;2023-02-18T10:40:05;9.60;84.90
78345;DHT22;67620;51.134;6.548;2023-02-18T10:42:42;9.50;86.50
78345;DHT22;67620;51.134;6.548;2023-02-18T10:48:00;9.30;88.90
78345;DHT22;67620;51.134;6.548;2023-02-18T10:50:40;9.20;89.70
78345;DHT22;67620;51.134;6.548;2023-02-18T10:53:29;9.20;89.80
78345;DHT22;67620;51.134;6.548;2023-02-18T10:55:55;9.20;89.20
78345;DHT22;67620;51.134;6.548;2023-02-18T10:58:33;9.30;89.40
78345;DHT22;67620;51.134;6.548;2023-02-18T11:01:00;9.20;88.70
78345;DHT22;67620;51.134;6.548;2023-02-18T11:03:47;9.10;89.40
78345;DHT22;67620;51.134;6.548;2023-02-18T11:06:48;9.10;90.50
78345;DHT22;67620;51.134;6.548;2023-02-18T11:12:02;9.10;91.20
78345;DHT22;67620;51.134;6.548;2023-02-18T11:19:56;9.20;92.00
78345;DHT22;67620;51.134;6.548;2023-02-18T11:22:30;9.20;92.10
78345;DHT22;67620;51.134;6.548;2023-02-18T11:25:02;9.20;92.10
78345;DHT22;67620;51.134;6.548;2023-02-18T11:27:40;9.20;92.60
78345;DHT22;67620;51.134;6.548;2023-02-18T11:30:36;9.20;92.80
78345;DHT22;67620;51.134;6.548;2023-02-18T11:33:19;9.20;92.90
78345;DHT22;67620;51.134;6.548;2023-02-18T11:35:50;9.20;93.10
78345;DHT22;67620;51.134;6.548;2023-02-18T11:38:28;9.30;93.30
78345;DHT22;67620;51.134;6.548;2023-02-18T11:41:10;9.30;93.10
78345;DHT22;67620;51.134;6.548;2023-02-18T11:43:40;9.30;93.10
78345;DHT22;67620;51.134;6.548;2023-02-18T11:46:13;9.30;92.70
78345;DHT22;67620;51.134;6.548;2023-02-18T11:48:39;9.20;92.90
78345;DHT22;67620;51.134;6.548;2023-02-18T11:51:09;9.30;93.10
78345;DHT22;67620;51.134;6.548;2023-02-18T11:53:50;9.40;93.10
78345;DHT22;67620;51.134;6.548;2023-02-18T11:56:18;9.30;92.70
78345;DHT22;67620;51.134;6.548;2023-02-18T11:58:48;9.40;93.60
78345;DHT22;67620;51.134;6.548;2023-02-18T12:03:59;9.40;93.10
78345;DHT22;67620;51.134;6.548;2023-02-18T12:06:33;9.40;93.30
78345;DHT22;67620;51.134;6.548;2023-02-18T12:09:19;9.40;93.60
78345;DHT22;67620;51.134;6.548;2023-02-18T12:11:58;9.30;93.40
78345;DHT22;67620;51.134;6.548;2023-02-18T12:14:24;9.30;93.40
78345;DHT22;67620;51.134;6.548;2023-02-18T12:28:21;9.50;93.70
78345;DHT22;67620;51.134;6.548;2023-02-18T12:33:44;9.40;93.90
78345;DHT22;67620;51.134;6.548;2023-02-18T12:45:04;9.50;93.70
78345;DHT22;67620;51.134;6.548;2023-02-18T12:50:48;9.40;93.50
78345;DHT22;67620;51.134;6.548;2023-02-18T12:58:46;9.40;93.80
78345;DHT22;67620;51.134;6.548;2023-02-18T13:07:16;9.40;93.80
78345;DHT22;67620;51.134;6.548;2023-02-18T13:12:45;9.40;93.90
78345;DHT22;67620;51.134;6.548;2023-02-18T13:15:18;9.40;94.20
78345;DHT22;67620;51.134;6.548;2023-02-18T13:17:46;9.50;94.40
78345;DHT22;67620;51.134;6.548;2023-02-18T13:20:20;9.50;94.40
78345;DHT22;67620;51.134;6.548;2023-02-18T13:22:47;9.50;94.30
78345;DHT22;67620;51.134;6.548;2023-02-18T13:25:16;9.50;94.40
78345;DHT22;67620;51.134;6.548;2023-02-18T13:28:14;9.50;94.50
78345;DHT22;67620;51.134;6.548;2023-02-18T13:31:04;9.50;94.50
78345;DHT22;67620;51.134;6.548;2023-02-18T13:33:49;9.40;94.40
78345;DHT22;67620;51.134;6.548;2023-02-18T13:39:15;9.40;94.20
78345;DHT22;67620;51.134;6.548;2023-02-18T13:41:47;9.40;94.30
78345;DHT22;67620;51.134;6.548;2023-02-18T13:46:52;9.40;94.40
78345;DHT22;67620;51.134;6.548;2023-02-18T13:49:23;9.50;94.30
78345;DHT22;67620;51.134;6.548;2023-02-18T13:51:52;9.50;94.20
78345;DHT22;67620;51.134;6.548;2023-02-18T13:54:43;9.50;94.20
78345;DHT22;67620;51.134;6.548;2023-02-18T13:57:19;9.50;93.80
78345;DHT22;67620;51.134;6.548;2023-02-18T14:00:01;9.50;94.10
78345;DHT22;67620;51.134;6.548;2023-02-18T14:02:33;9.50;94.30
78345;DHT22;67620;51.134;6.548;2023-02-18T14:10:25;9.50;94.00
78345;DHT22;67620;51.134;6.548;2023-02-18T14:28:48;9.60;93.30
78345;DHT22;67620;51.134;6.548;2023-02-18T14:33:44;9.60;93.00
78345;DHT22;67620;51.134;6.548;2023-02-18T14:36:28;9.70;93.10
78345;DHT22;67620;51.134;6.548;2023-02-18T14:50:37;9.60;94.20
78345;DHT22;67620;51.134;6.548;2023-02-18T14:53:06;9.60;94.30
78345;DHT22;67620;51.134;6.548;2023-02-18T14:55:34;9.50;94.60
78345;DHT22;67620;51.134;6.548;2023-02-18T14:58:10;9.50;94.70
78345;DHT22;67620;51.134;6.548;2023-02-18T15:00:42;9.50;94.80
78345;DHT22;67620;51.134;6.548;2023-02-18T15:03:13;9.50;94.80
78345;DHT22;67620;51.134;6.548;2023-02-18T15:05:39;9.60;94.90
78345;DHT22;67620;51.134;6.548;2023-02-18T15:08:11;9.60;94.90
78345;DHT22;67620;51.134;6.548;2023-02-18T15:10:42;9.60;95.00
78345;DHT22;67620;51.134;6.548;2023-02-18T15:13:24;9.60;94.80
78345;DHT22;67620;51.134;6.548;2023-02-18T15:15:57;9.60;94.80
78345;DHT22;67620;51.134;6.548;2023-02-18T15:18:32;9.60;94.60
78345;DHT22;67620;51.134;6.548;2023-02-18T15:21:00;9.60;94.50
78345;DHT22;67620;51.134;6.548;2023-02-18T15:23:26;9.60;94.60
78345;DHT22;67620;51.134;6.548;2023-02-18T15:25:53;9.60;94.40
78345;DHT22;67620;51.134;6.548;2023-02-18T15:28:30;9.60;94.50
78345;DHT22;67620;51.134;6.548;2023-02-18T15:31:02;9.60;94.30
78345;DHT22;67620;51.134;6.548;2023-02-18T15:33:28;9.60;94.00
78345;DHT22;67620;51.134;6.548;2023-02-18T15:36:02;9.60;94.10
78345;DHT22;67620;51.134;6.548;2023-02-18T15:38:28;9.60;93.80
78345;DHT22;67620;51.134;6.548;2023-02-18T15:40:54;9.60;93.90
78345;DHT22;67620;51.134;6.548;2023-02-18T15:43:22;9.70;93.70
78345;DHT22;67620;51.134;6.548;2023-02-18T15:45:51;9.70;93.60
78345;DHT22;67620;51.134;6.548;2023-02-18T15:50:51;9.70;93.40
78345;DHT22;67620;51.134;6.548;2023-02-18T15:53:19;9.70;93.10
78345;DHT22;67620;51.134;6.548;2023-02-18T15:55:48;9.70;93.20
78345;DHT22;67620;51.134;6.548;2023-02-18T15:58:21;9.70;93.20
78345;DHT22;67620;51.134;6.548;2023-02-18T16:03:22;9.70;93.20
78345;DHT22;67620;51.134;6.548;2023-02-18T16:05:48;9.70;93.20
78345;DHT22;67620;51.134;6.548;2023-02-18T16:08:22;9.80;92.80
78345;DHT22;67620;51.134;6.548;2023-02-18T16:10:56;9.80;92.40
78345;DHT22;67620;51.134;6.548;2023-02-18T16:13:24;9.80;92.60
78345;DHT22;67620;51.134;6.548;2023-02-18T16:15:51;9.80;92.60
78345;DHT22;67620;51.134;6.548;2023-02-18T16:18:38;9.80;92.30
78345;DHT22;67620;51.134;6.548;2023-02-18T16:21:28;9.80;92.10
78345;DHT22;67620;51.134;6.548;2023-02-18T16:23:56;9.80;92.10
78345;DHT22;67620;51.134;6.548;2023-02-18T16:26:40;9.80;92.20
78345;DHT22;67620;51.134;6.548;2023-02-18T16:29:14;9.80;91.80
78345;DHT22;67620;51.134;6.548;2023-02-18T16:31:41;9.80;92.00
78345;DHT22;67620;51.134;6.548;2023-02-18T16:34:06;9.80;92.10
78345;DHT22;67620;51.134;6.548;2023-02-18T16:36:32;9.80;92.20
78345;DHT22;67620;51.134;6.548;2023-02-18T16:38:58;9.80;92.30
78345;DHT22;67620;51.134;6.548;2023-02-18T16:41:26;9.70;92.40
78345;DHT22;67620;51.134;6.548;2023-02-18T16:43:52;9.70;92.50
78345;DHT22;67620;51.134;6.548;2023-02-18T16:46:21;9.70;92.30
78345;DHT22;67620;51.134;6.548;2023-02-18T16:48:51;9.70;92.20
78345;DHT22;67620;51.134;6.548;2023-02-18T16:51:30;9.80;92.00
78345;DHT22;67620;51.134;6.548;2023-02-18T16:53:57;9.80;92.10
78345;DHT22;67620;51.134;6.548;2023-02-18T16:56:25;9.70;92.40
78345;DHT22;67620;51.134;6.548;2023-02-18T16:58:51;9.70;92.40
78345;DHT22;67620;51.134;6.548;2023-02-18T17:01:27;9.70;92.60
78345;DHT22;67620;51.134;6.548;2023-02-18T17:03:54;9.70;92.50
78345;DHT22;67620;51.134;6.548;2023-02-18T17:06:20;9.70;92.40
78345;DHT22;67620;51.134;6.548;2023-02-18T17:08:46;9.70;92.60
78345;DHT22;67620;51.134;6.548;2023-02-18T17:11:34;9.70;92.60
78345;DHT22;67620;51.134;6.548;2023-02-18T17:14:00;9.70;92.50
78345;DHT22;67620;51.134;6.548;2023-02-18T17:16:29;9.70;92.50
78345;DHT22;67620;51.134;6.548;2023-02-18T17:18:55;9.70;92.70
78345;DHT22;67620;51.134;6.548;2023-02-18T17:21:22;9.70;92.80
78345;DHT22;67620;51.134;6.548;2023-02-18T17:23:49;9.70;92.50
78345;DHT22;67620;51.134;6.548;2023-02-18T17:26:23;9.70;92.60
78345;DHT22;67620;51.134;6.548;2023-02-18T17:28:51;9.70;93.00
78345;DHT22;67620;51.134;6.548;2023-02-18T17:31:23;9.70;93.00
78345;DHT22;67620;51.134;6.548;2023-02-18T17:33:51;9.70;92.70
78345;DHT22;67620;51.134;6.548;2023-02-18T17:36:18;9.70;92.70
78345;DHT22;67620;51.134;6.548;2023-02-18T17:38:44;9.70;92.80
78345;DHT22;67620;51.134;6.548;2023-02-18T17:41:11;9.60;93.20
78345;DHT22;67620;51.134;6.548;2023-02-18T17:43:37;9.60;93.60
78345;DHT22;67620;51.134;6.548;2023-02-18T17:46:03;9.60;93.70
78345;DHT22;67620;51.134;6.548;2023-02-18T17:48:29;9.60;93.90
78345;DHT22;67620;51.134;6.548;2023-02-18T17:50:55;9.60;94.00
78345;DHT22;67620;51.134;6.548;2023-02-18T17:53:21;9.60;93.90
78345;DHT22;67620;51.134;6.548;2023-02-18T17:55:48;9.60;93.90
78345;DHT22;67620;51.134;6.548;2023-02-18T17:58:14;9.50;94.00
78345;DHT22;67620;51.134;6.548;2023-02-18T18:00:52;9.50;94.00
78345;DHT22;67620;51.134;6.548;2023-02-18T18:03:18;9.50;94.10
78345;DHT22;67620;51.134;6.548;2023-02-18T18:05:46;9.50;94.40
78345;DHT22;67620;51.134;6.548;2023-02-18T18:08:12;9.50;94.30
78345;DHT22;67620;51.134;6.548;2023-02-18T18:10:45;9.50;94.30
78345;DHT22;67620;51.134;6.548;2023-02-18T18:13:23;9.50;94.10
78345;DHT22;67620;51.134;6.548;2023-02-18T18:15:50;9.50;94.10
78345;DHT22;67620;51.134;6.548;2023-02-18T18:18:16;9.50;93.90
78345;DHT22;67620;51.134;6.548;2023-02-18T18:20:44;9.50;93.70
78345;DHT22;67620;51.134;6.548;2023-02-18T18:23:13;9.50;93.60
78345;DHT22;67620;51.134;6.548;2023-02-18T18:25:50;9.50;93.50
78345;DHT22;67620;51.134;6.548;2023-02-18T18:28:16;9.50;93.70